San Carlos, California
Current Conditions -  °F | °C
As of 8:50 AM on Saturday 25 Oct 2014 (Local Time) from KSQL Reporting Station
Rain Showers Rain Showers  
Wind Chill: 63°   Ceiling: 2500
Heat Index: 63°   Visibility: 10mi
Dew Point: 57°   Wind: 15mph
Humidity: 82%   Direction: 130°SE
Pressure: 30.01"   Gusts: 18mph
Location:  37.5°N, 122.26°W
Report Text: KSQL 251550Z 13013G16KT 10SM VCSH BKN025 BKN031 BKN120 17/14 A3001
Loading
Personal Weather Stations






























Interactive Weather Map
Tropical Storm Tracking
New forecast layout! Learn more

10-Day Weather Forecast

Advertisements
Track Severe Weather on mobile